Time;durP1;ratioP1;P1;durP2;ratioP2;P2;SDS_P1;SDS_P2;PMS_P1;PMS_P2;Temp;Humidity;BMP_temperature;BMP_pressure;BME280_temperature;BME280_humidity;BME280_pressure;Samples;Min_cycle;Max_cycle;Signal;HPM_P1;HPM_P2
2023/09/16 00:00:08;;;;;;;20.52;14.48;;;14.00;99.90;;;;;;5156640;27;20127;-73
2023/09/16 00:02:36;;;;;;;17.60;13.85;;;14.00;99.90;;;;;;5140307;27;20091;-73
2023/09/16 00:05:03;;;;;;;20.05;14.15;;;14.00;99.90;;;;;;5140282;27;20087;-73
2023/09/16 00:07:29;;;;;;;20.67;14.52;;;14.00;99.90;;;;;;5140062;27;20047;-73
2023/09/16 00:10:01;;;;;;;19.77;14.65;;;14.10;99.90;;;;;;5140321;27;20095;-73
2023/09/16 00:12:27;;;;;;;17.63;14.13;;;14.10;99.90;;;;;;5140075;27;20043;-73
2023/09/16 00:14:53;;;;;;;16.42;14.25;;;14.10;99.90;;;;;;5158504;27;20043;-73
2023/09/16 00:17:19;;;;;;;20.45;14.73;;;14.10;99.90;;;;;;5140069;27;20435;-73
2023/09/16 00:19:45;;;;;;;18.85;14.95;;;14.10;99.90;;;;;;5139702;27;20043;-73
2023/09/16 00:22:11;;;;;;;20.65;14.55;;;14.10;99.90;;;;;;5139724;27;20106;-73
2023/09/16 00:24:40;;;;;;;17.02;13.77;;;14.00;99.90;;;;;;5139939;27;20424;-73
2023/09/16 00:27:09;;;;;;;19.58;15.43;;;14.00;99.90;;;;;;5139686;27;20035;-73
2023/09/16 00:29:35;;;;;;;20.90;16.55;;;14.00;99.90;;;;;;5139982;27;20054;-73
2023/09/16 00:32:04;;;;;;;20.20;15.25;;;14.00;99.90;;;;;;5139445;27;20486;-73
2023/09/16 00:34:30;;;;;;;19.30;15.68;;;14.00;99.90;;;;;;5157934;27;20038;-73
2023/09/16 00:36:55;;;;;;;22.80;17.35;;;14.00;99.90;;;;;;5139506;27;20041;-73
2023/09/16 00:39:22;;;;;;;21.77;16.35;;;14.00;99.90;;;;;;5158118;27;20035;-72
2023/09/16 00:41:48;;;;;;;21.30;16.50;;;14.00;99.90;;;;;;5140014;27;20049;-73
2023/09/16 00:44:13;;;;;;;23.73;18.17;;;14.00;99.90;;;;;;5157978;27;20042;-73
2023/09/16 00:46:39;;;;;;;24.75;18.80;;;14.00;99.90;;;;;;5157945;27;20121;-73
2023/09/16 00:49:05;;;;;;;28.40;20.17;;;14.00;99.90;;;;;;5139250;27;20068;-73
2023/09/16 00:51:31;;;;;;;25.35;19.80;;;14.10;99.90;;;;;;5157520;27;20042;-73
2023/09/16 00:53:58;;;;;;;28.65;21.05;;;14.00;99.90;;;;;;5157560;27;20565;-73
2023/09/16 00:56:27;;;;;;;25.80;19.27;;;14.00;99.90;;;;;;5139458;27;20050;-73
2023/09/16 00:58:55;;;;;;;23.33;19.38;;;14.00;99.90;;;;;;5139086;27;20057;-73
2023/09/16 01:01:22;;;;;;;25.88;20.25;;;14.00;99.90;;;;;;5157455;27;20492;-73
2023/09/16 01:03:49;;;;;;;29.58;20.63;;;14.00;99.90;;;;;;5139197;27;20045;-73
2023/09/16 01:06:16;;;;;;;27.83;20.58;;;14.00;99.90;;;;;;5139136;27;20089;-73
2023/09/16 01:08:44;;;;;;;27.60;21.33;;;14.10;99.90;;;;;;5138823;27;20064;-73
2023/09/16 01:11:10;;;;;;;29.67;20.63;;;14.10;99.90;;;;;;5156559;27;20051;-73
2023/09/16 01:13:38;;;;;;;23.13;19.58;;;14.10;99.90;;;;;;5139192;27;20399;-73
2023/09/16 01:16:11;;;;;;;27.77;19.80;;;14.10;99.90;;;;;;5157051;27;20362;-73
2023/09/16 01:18:42;;;;;;;26.73;20.20;;;14.10;99.90;;;;;;5138968;27;20050;-73
2023/09/16 01:21:08;;;;;;;26.42;21.08;;;14.10;99.90;;;;;;5138753;27;20069;-73
2023/09/16 01:23:34;;;;;;;29.30;22.05;;;14.10;99.90;;;;;;5138750;27;20043;-73
2023/09/16 01:26:00;;;;;;;26.05;21.83;;;14.20;99.90;;;;;;5157068;27;20090;-73
2023/09/16 01:28:25;;;;;;;29.75;21.67;;;14.10;99.90;;;;;;5138397;27;20050;-73
2023/09/16 01:30:55;;;;;;;27.58;21.13;;;14.20;99.90;;;;;;5138202;27;20039;-73
2023/09/16 01:33:22;;;;;;;29.48;22.55;;;14.10;99.90;;;;;;5138434;27;20055;-72
2023/09/16 01:35:54;;;;;;;26.38;21.00;;;14.10;99.90;;;;;;5138416;27;20072;-73
2023/09/16 01:38:23;;;;;;;29.13;21.60;;;14.10;99.90;;;;;;5138533;27;20043;-72
2023/09/16 01:40:51;;;;;;;27.33;22.45;;;14.10;99.90;;;;;;5156858;27;20091;-73
2023/09/16 01:43:18;;;;;;;26.52;21.35;;;14.00;99.90;;;;;;5138374;27;20035;-73
2023/09/16 01:45:45;;;;;;;26.30;22.35;;;14.00;99.90;;;;;;5138134;27;20046;-73
2023/09/16 01:48:11;;;;;;;28.92;21.80;;;14.00;99.90;;;;;;5138062;27;20568;-73
2023/09/16 01:50:37;;;;;;;28.08;22.83;;;13.90;99.90;;;;;;5156727;27;20062;-73
2023/09/16 01:53:06;;;;;;;28.90;23.35;;;13.90;99.90;;;;;;5138080;27;20043;-73
2023/09/16 01:55:32;;;;;;;27.65;22.80;;;13.90;99.90;;;;;;5137808;27;20550;-72
2023/09/16 01:57:58;;;;;;;29.70;23.13;;;13.80;99.90;;;;;;5156563;27;20064;-73
2023/09/16 02:00:24;;;;;;;29.17;22.67;;;13.80;99.90;;;;;;5137830;27;20051;-73
2023/09/16 02:02:51;;;;;;;29.02;23.80;;;13.80;99.90;;;;;;5156524;27;20118;-73
2023/09/16 02:05:16;;;;;;;29.75;24.42;;;13.80;99.90;;;;;;5138119;27;20078;-73
2023/09/16 02:07:42;;;;;;;30.17;24.30;;;13.80;99.90;;;;;;5137736;27;20075;-72
2023/09/16 02:10:09;;;;;;;31.20;23.25;;;13.70;99.90;;;;;;5156543;27;20078;-73
2023/09/16 02:12:34;;;;;;;29.63;24.15;;;13.70;99.90;;;;;;5156701;27;20535;-73
2023/09/16 02:15:01;;;;;;;28.17;22.58;;;13.60;99.90;;;;;;5137690;27;20092;-73
2023/09/16 02:17:27;;;;;;;28.58;22.60;;;13.70;99.90;;;;;;5137188;27;20034;-72
2023/09/16 02:19:52;;;;;;;30.60;23.15;;;13.60;99.90;;;;;;5156145;27;20054;-72
2023/09/16 02:22:18;;;;;;;28.73;22.95;;;13.60;99.90;;;;;;5137419;27;20042;-72
2023/09/16 02:24:44;;;;;;;31.23;24.17;;;13.60;99.90;;;;;;5137587;27;20035;-72
2023/09/16 02:27:09;;;;;;;28.85;23.85;;;13.60;99.90;;;;;;5137387;27;20443;-73
2023/09/16 02:29:35;;;;;;;28.45;24.70;;;13.50;99.90;;;;;;5137346;27;20043;-72
2023/09/16 02:32:01;;;;;;;32.47;23.95;;;13.60;99.90;;;;;;5136945;27;20143;-73
2023/09/16 02:34:31;;;;;;;30.23;24.20;;;13.50;99.90;;;;;;5137302;27;20087;-72
2023/09/16 02:36:57;;;;;;;29.88;23.70;;;13.50;99.90;;;;;;5137466;27;20091;-73
2023/09/16 02:39:23;;;;;;;32.30;23.98;;;13.50;99.90;;;;;;5137455;27;20066;-73
2023/09/16 02:41:49;;;;;;;29.20;23.65;;;13.40;99.90;;;;;;5155767;27;20489;-73
2023/09/16 02:44:14;;;;;;;27.90;22.83;;;13.40;99.90;;;;;;5155668;27;20394;-73
2023/09/16 02:46:40;;;;;;;29.10;24.42;;;13.40;99.90;;;;;;5155740;27;20126;-73
2023/09/16 02:49:06;;;;;;;31.90;25.95;;;13.40;99.90;;;;;;5136937;27;20115;-73
2023/09/16 02:51:34;;;;;;;27.70;23.65;;;13.40;99.90;;;;;;5155598;27;20099;-73
2023/09/16 02:54:01;;;;;;;30.85;24.15;;;13.30;99.90;;;;;;5155334;27;20391;-73
2023/09/16 02:56:27;;;;;;;27.73;22.55;;;13.30;99.90;;;;;;5137156;27;20057;-73
2023/09/16 02:58:53;;;;;;;28.92;23.67;;;13.30;99.90;;;;;;5155553;27;20046;-72
2023/09/16 03:01:19;;;;;;;30.75;24.30;;;13.30;99.90;;;;;;5155503;27;20090;-72
2023/09/16 03:03:45;;;;;;;26.75;22.05;;;13.30;99.90;;;;;;5136808;27;20098;-73
2023/09/16 03:06:10;;;;;;;31.58;23.05;;;13.20;99.90;;;;;;5136861;27;20042;-73
2023/09/16 03:08:36;;;;;;;30.02;23.15;;;13.20;99.90;;;;;;5156109;27;20172;-73
2023/09/16 03:11:06;;;;;;;29.95;23.42;;;13.20;99.90;;;;;;5136731;27;20393;-73
2023/09/16 03:13:31;;;;;;;29.77;24.00;;;13.10;99.90;;;;;;5136778;27;20121;-73
2023/09/16 03:16:17;;;;;;;27.38;22.92;;;13.10;99.90;;;;;;5155221;27;20187;-73
2023/09/16 03:18:45;;;;;;;29.95;25.02;;;13.10;99.90;;;;;;5136486;27;20047;-73
2023/09/16 03:21:11;;;;;;;28.60;24.17;;;13.10;99.90;;;;;;5155562;27;20071;-73
2023/09/16 03:23:36;;;;;;;35.63;24.33;;;13.10;99.90;;;;;;5136605;27;20034;-73
2023/09/16 03:26:02;;;;;;;29.13;24.02;;;13.10;99.90;;;;;;5136654;27;20130;-73
2023/09/16 03:28:28;;;;;;;31.48;24.13;;;13.10;99.90;;;;;;5136701;27;20048;-72
2023/09/16 03:30:54;;;;;;;31.88;24.05;;;13.10;99.90;;;;;;5136738;27;20091;-73
2023/09/16 03:33:20;;;;;;;30.20;24.23;;;13.10;99.90;;;;;;5136707;27;20050;-73
2023/09/16 03:35:45;;;;;;;29.95;24.30;;;13.10;99.90;;;;;;5139490;27;20042;-73
2023/09/16 03:38:11;;;;;;;31.83;24.40;;;13.00;99.90;;;;;;5141250;27;20042;-73
2023/09/16 03:40:37;;;;;;;30.80;24.02;;;13.00;99.90;;;;;;5140819;27;20137;-73
2023/09/16 03:43:04;;;;;;;28.38;22.98;;;13.00;99.90;;;;;;5140709;27;20049;-72
2023/09/16 03:45:32;;;;;;;32.50;25.05;;;13.00;99.90;;;;;;5141055;27;20176;-73
2023/09/16 03:47:58;;;;;;;30.48;24.83;;;13.00;99.90;;;;;;5140635;27;20046;-72
2023/09/16 03:50:24;;;;;;;35.63;26.02;;;13.00;99.90;;;;;;5140761;27;20050;-73
2023/09/16 03:52:50;;;;;;;30.70;25.75;;;13.00;99.90;;;;;;5158962;27;20470;-73
2023/09/16 03:55:15;;;;;;;34.35;26.90;;;13.00;99.90;;;;;;5159037;27;20038;-73
2023/09/16 03:57:41;;;;;;;32.97;26.70;;;13.00;99.90;;;;;;5140405;27;20055;-73
2023/09/16 04:00:08;;;;;;;32.33;26.25;;;13.00;99.90;;;;;;5140542;27;20389;-73
2023/09/16 04:02:33;;;;;;;34.10;26.88;;;13.00;99.90;;;;;;5158825;27;20047;-73
2023/09/16 04:04:59;;;;;;;34.25;26.95;;;13.00;99.90;;;;;;5140093;27;20043;-73
2023/09/16 04:07:25;;;;;;;34.08;26.38;;;13.00;99.90;;;;;;5140334;27;20039;-72
2023/09/16 04:09:50;;;;;;;34.38;26.30;;;13.00;99.90;;;;;;5140043;27;20513;-73
2023/09/16 04:12:16;;;;;;;33.10;26.45;;;13.00;99.90;;;;;;5140345;27;20039;-72
2023/09/16 04:14:42;;;;;;;36.53;29.25;;;13.00;99.90;;;;;;5158482;27;20043;-72
2023/09/16 04:17:07;;;;;;;38.33;27.65;;;13.00;99.90;;;;;;5158481;27;20042;-72
2023/09/16 04:19:33;;;;;;;32.05;26.83;;;13.00;99.90;;;;;;5139771;27;20126;-72
2023/09/16 04:21:58;;;;;;;35.42;28.35;;;13.00;99.90;;;;;;5139780;27;20042;-72
2023/09/16 04:24:24;;;;;;;32.58;26.85;;;13.00;99.90;;;;;;5140076;27;20473;-72
2023/09/16 04:26:49;;;;;;;36.50;27.58;;;13.00;99.90;;;;;;5139833;27;20074;-72
2023/09/16 04:29:15;;;;;;;38.25;27.73;;;13.00;99.90;;;;;;5140077;27;20163;-73
2023/09/16 04:31:42;;;;;;;33.50;28.23;;;13.00;99.90;;;;;;5139325;27;20489;-73
2023/09/16 04:34:07;;;;;;;37.80;28.73;;;13.00;99.90;;;;;;5139349;27;20047;-73
2023/09/16 04:36:33;;;;;;;33.17;27.95;;;12.90;99.90;;;;;;5139818;27;20054;-73
2023/09/16 04:38:59;;;;;;;40.42;30.60;;;12.90;99.90;;;;;;5158054;27;20046;-73
2023/09/16 04:41:24;;;;;;;37.42;28.67;;;12.90;99.90;;;;;;5158038;27;20041;-73
2023/09/16 04:43:51;;;;;;;39.25;28.38;;;12.90;99.90;;;;;;5158005;27;20068;-73
2023/09/16 04:46:18;;;;;;;37.65;29.23;;;12.80;99.90;;;;;;5156318;27;20553;-73
2023/09/16 04:48:45;;;;;;;36.33;29.10;;;12.80;99.90;;;;;;5139059;27;20053;-73
2023/09/16 04:51:10;;;;;;;39.25;29.77;;;12.80;99.90;;;;;;5157836;27;20034;-72
2023/09/16 04:53:36;;;;;;;38.97;30.17;;;12.80;99.90;;;;;;5157637;27;20103;-72
2023/09/16 04:56:05;;;;;;;38.38;28.80;;;12.80;99.90;;;;;;5139112;27;20062;-73
2023/09/16 04:58:31;;;;;;;38.65;29.52;;;12.80;99.90;;;;;;5138904;27;20053;-73
2023/09/16 05:00:59;;;;;;;35.70;27.85;;;12.80;99.90;;;;;;5138812;27;20047;-73
2023/09/16 05:03:25;;;;;;;36.00;28.85;;;12.70;99.90;;;;;;5137957;27;20047;-72
2023/09/16 05:05:52;;;;;;;39.38;28.92;;;12.70;99.90;;;;;;5157418;27;20050;-73
2023/09/16 05:08:18;;;;;;;37.33;28.05;;;12.70;99.90;;;;;;5138982;27;20042;-72
2023/09/16 05:10:44;;;;;;;38.17;29.27;;;12.70;99.90;;;;;;5139057;27;20531;-73
2023/09/16 05:13:09;;;;;;;35.40;29.27;;;12.60;99.90;;;;;;5138762;27;20035;-73
2023/09/16 05:15:35;;;;;;;32.05;27.40;;;12.60;99.90;;;;;;5138538;27;20035;-72
2023/09/16 05:18:04;;;;;;;37.72;30.05;;;12.60;99.90;;;;;;5157257;27;20035;-72
2023/09/16 05:20:29;;;;;;;35.10;28.88;;;12.60;99.90;;;;;;5157104;27;20095;-72
2023/09/16 05:22:55;;;;;;;36.72;26.95;;;12.60;99.90;;;;;;5138693;27;20031;-73
2023/09/16 05:25:23;;;;;;;37.30;29.23;;;12.60;99.90;;;;;;5138661;27;20543;-72
2023/09/16 05:27:49;;;;;;;38.28;30.35;;;12.60;99.90;;;;;;5156884;27;20121;-73
2023/09/16 05:30:15;;;;;;;40.90;29.33;;;12.60;99.90;;;;;;5138304;27;20512;-72
2023/09/16 05:32:41;;;;;;;38.35;29.92;;;12.70;99.90;;;;;;5138044;27;20138;-72
2023/09/16 05:35:07;;;;;;;37.65;30.90;;;12.70;99.90;;;;;;5138124;27;20129;-73
2023/09/16 05:37:33;;;;;;;38.05;30.00;;;12.70;99.90;;;;;;5138373;27;20051;-72
2023/09/16 05:39:59;;;;;;;37.95;28.52;;;12.70;99.90;;;;;;5156946;27;20064;-73
2023/09/16 05:42:24;;;;;;;35.00;28.85;;;12.70;99.90;;;;;;5138234;27;20050;-72
2023/09/16 05:44:50;;;;;;;35.05;29.15;;;12.70;99.90;;;;;;5138096;27;20069;-72
2023/09/16 05:47:17;;;;;;;34.67;28.42;;;12.70;99.90;;;;;;5156756;27;20050;-73
2023/09/16 05:49:42;;;;;;;38.70;29.45;;;12.70;99.90;;;;;;5138205;27;20059;-72
2023/09/16 05:52:08;;;;;;;38.20;29.85;;;12.80;99.90;;;;;;5138116;27;20054;-72
2023/09/16 05:54:37;;;;;;;41.05;29.95;;;12.80;99.90;;;;;;5156347;27;20046;-72
2023/09/16 05:57:02;;;;;;;37.70;30.00;;;12.90;99.90;;;;;;5137553;27;20046;-72
2023/09/16 05:59:28;;;;;;;35.45;28.90;;;13.00;99.90;;;;;;5137909;27;20437;-72
2023/09/16 06:01:54;;;;;;;37.85;30.80;;;13.00;99.90;;;;;;5156473;27;20039;-73
2023/09/16 06:04:19;;;;;;;37.95;30.00;;;13.10;99.90;;;;;;5156304;27;20027;-72
2023/09/16 06:06:46;;;;;;;36.97;29.17;;;13.20;99.90;;;;;;5137765;27;20500;-72
2023/09/16 06:09:12;;;;;;;38.00;29.33;;;13.30;99.90;;;;;;5137427;27;20057;-71
2023/09/16 06:11:37;;;;;;;39.78;30.45;;;13.40;99.90;;;;;;5137373;27;20133;-72
2023/09/16 06:14:05;;;;;;;37.03;29.75;;;13.50;99.90;;;;;;5156133;27;20045;-72
2023/09/16 06:16:31;;;;;;;35.28;28.58;;;13.60;99.90;;;;;;5137393;27;20046;-72
2023/09/16 06:18:57;;;;;;;39.83;31.20;;;13.70;99.90;;;;;;5137203;27;20126;-72
2023/09/16 06:21:22;;;;;;;46.00;33.35;;;13.70;99.90;;;;;;5137461;27;20046;-73
2023/09/16 06:23:48;;;;;;;46.13;32.88;;;13.80;99.90;;;;;;5155753;27;20046;-72
2023/09/16 06:26:14;;;;;;;38.95;30.52;;;13.90;99.90;;;;;;5137455;27;20039;-73
2023/09/16 06:28:39;;;;;;;38.95;31.08;;;13.90;99.90;;;;;;5137538;27;20108;-72
2023/09/16 06:31:05;;;;;;;35.95;29.50;;;14.00;99.90;;;;;;5137253;27;20473;-72
2023/09/16 06:33:32;;;;;;;37.75;31.42;;;14.00;99.90;;;;;;5135209;27;20455;-72
2023/09/16 06:35:57;;;;;;;39.75;31.60;;;14.10;99.90;;;;;;5127306;27;20130;-71
2023/09/16 06:38:27;;;;;;;38.28;30.38;;;14.20;99.90;;;;;;5117007;27;20100;-71
2023/09/16 06:40:55;;;;;;;39.20;31.23;;;14.30;99.90;;;;;;5115680;27;20051;-71
2023/09/16 06:43:23;;;;;;;41.45;31.88;;;14.40;99.90;;;;;;5134646;27;20202;-72
2023/09/16 06:45:49;;;;;;;42.50;31.48;;;14.50;99.90;;;;;;5116392;27;20050;-72
2023/09/16 06:48:15;;;;;;;40.05;30.52;;;14.50;99.90;;;;;;5116103;27;20066;-72
2023/09/16 06:50:42;;;;;;;36.75;31.73;;;14.60;99.90;;;;;;5115643;27;20089;-72
2023/09/16 06:53:07;;;;;;;36.60;29.95;;;14.70;99.90;;;;;;5116312;27;20043;-72
2023/09/16 06:55:33;;;;;;;36.55;29.52;;;14.70;99.90;;;;;;5134542;27;20104;-72
2023/09/16 06:57:59;;;;;;;34.38;28.73;;;14.80;99.90;;;;;;5115857;27;20427;-72
2023/09/16 07:00:25;;;;;;;33.83;28.00;;;14.90;99.90;;;;;;5115919;28;20482;-72
2023/09/16 07:02:54;;;;;;;38.03;30.92;;;15.00;99.90;;;;;;5116296;27;20035;-72
2023/09/16 07:05:20;;;;;;;34.95;28.00;;;15.00;99.90;;;;;;5116149;27;20055;-72
2023/09/16 07:07:45;;;;;;;35.42;27.90;;;15.10;99.90;;;;;;5134128;27;20442;-72
2023/09/16 07:10:11;;;;;;;34.75;27.40;;;15.20;99.90;;;;;;5115034;28;20047;-72
2023/09/16 07:12:36;;;;;;;34.38;26.50;;;15.30;99.90;;;;;;5115880;28;20538;-72
2023/09/16 07:15:02;;;;;;;33.78;26.70;;;15.40;99.90;;;;;;5115873;28;20077;-73
2023/09/16 07:17:28;;;;;;;36.83;27.45;;;15.50;99.90;;;;;;5115984;28;20501;-72
2023/09/16 07:19:54;;;;;;;33.30;26.73;;;15.60;99.90;;;;;;5134084;28;20382;-72
2023/09/16 07:22:20;;;;;;;32.88;26.15;;;15.60;99.90;;;;;;5133922;28;20051;-72
2023/09/16 07:24:51;;;;;;;34.70;25.65;;;15.70;99.90;;;;;;5115775;28;20122;-72
2023/09/16 07:27:19;;;;;;;31.85;26.38;;;15.80;99.90;;;;;;5115927;28;20054;-72
2023/09/16 07:29:48;;;;;;;30.42;25.02;;;15.90;99.90;;;;;;5115615;28;20402;-72
2023/09/16 07:32:18;;;;;;;33.25;25.77;;;15.90;99.90;;;;;;5111744;28;20062;-73
2023/09/16 07:34:45;;;;;;;32.50;25.48;;;16.00;99.90;;;;;;5113650;28;20046;-71
2023/09/16 07:37:10;;;;;;;32.58;24.40;;;16.10;99.90;;;;;;5112419;28;20044;-71
2023/09/16 07:39:36;;;;;;;31.33;24.48;;;16.20;99.90;;;;;;5113684;28;20031;-71
2023/09/16 07:42:02;;;;;;;30.20;24.90;;;16.20;99.90;;;;;;5111990;28;20085;-72
2023/09/16 07:44:27;;;;;;;32.40;25.65;;;16.30;99.90;;;;;;5112142;28;20547;-71
2023/09/16 07:46:53;;;;;;;30.75;24.27;;;16.40;99.90;;;;;;5113545;28;20035;-71
2023/09/16 07:49:19;;;;;;;31.42;24.08;;;16.40;99.90;;;;;;5112181;28;20085;-71
2023/09/16 07:51:46;;;;;;;30.33;22.85;;;16.50;99.90;;;;;;5113554;28;20394;-71
2023/09/16 07:54:14;;;;;;;28.08;22.48;;;16.60;99.90;;;;;;5113355;28;20058;-71
2023/09/16 07:56:39;;;;;;;29.13;22.33;;;16.70;99.90;;;;;;5112318;28;20058;-71
2023/09/16 07:59:05;;;;;;;29.20;22.23;;;16.80;99.90;;;;;;5113313;28;20040;-71
2023/09/16 08:01:31;;;;;;;24.88;19.90;;;16.80;99.90;;;;;;5113258;28;20047;-72
2023/09/16 08:03:56;;;;;;;26.02;21.73;;;16.90;99.90;;;;;;5111965;28;20039;-72
2023/09/16 08:06:23;;;;;;;27.13;20.98;;;17.00;99.90;;;;;;5113400;28;20046;-72
2023/09/16 08:08:49;;;;;;;25.63;20.13;;;17.10;99.90;;;;;;5112145;28;20479;-73
2023/09/16 08:11:18;;;;;;;26.55;20.40;;;17.10;99.90;;;;;;5111911;28;20051;-72
2023/09/16 08:13:44;;;;;;;25.20;20.15;;;17.20;99.90;;;;;;5111823;28;20048;-73
2023/09/16 08:16:10;;;;;;;24.65;18.60;;;17.30;99.90;;;;;;5113902;28;20066;-72
2023/09/16 08:18:39;;;;;;;21.67;17.63;;;17.30;99.90;;;;;;5133218;27;20085;-72
2023/09/16 08:21:05;;;;;;;29.50;22.65;;;17.40;99.90;;;;;;5134421;27;20434;-72
2023/09/16 08:23:30;;;;;;;27.88;20.88;;;17.60;99.90;;;;;;5135855;27;20168;-72
2023/09/16 08:25:59;;;;;;;25.58;20.85;;;17.60;99.90;;;;;;5136482;27;20035;-72
2023/09/16 08:28:24;;;;;;;25.52;21.02;;;17.70;99.90;;;;;;5137032;27;20047;-72
2023/09/16 08:30:51;;;;;;;28.02;20.95;;;17.80;99.90;;;;;;5135276;27;20042;-73
2023/09/16 08:33:17;;;;;;;24.05;19.85;;;17.90;99.90;;;;;;5135257;27;20516;-72
2023/09/16 08:35:43;;;;;;;25.08;19.85;;;17.90;99.90;;;;;;5135642;27;20058;-73
2023/09/16 08:38:11;;;;;;;22.50;17.80;;;18.00;99.90;;;;;;5135999;27;20043;-73
2023/09/16 08:40:38;;;;;;;22.02;18.08;;;18.10;99.90;;;;;;5137202;27;20153;-73
2023/09/16 08:43:30;;;;;;;25.52;18.00;;;18.20;99.90;;;;;;5135654;27;20043;-72
2023/09/16 08:46:01;;;;;;;20.55;15.73;;;18.30;99.90;;;;;;5136501;27;20054;-73
2023/09/16 08:48:33;;;;;;;21.10;17.77;;;18.50;99.90;;;;;;5135693;27;20139;-73
2023/09/16 08:51:01;;;;;;;26.45;21.23;;;18.50;99.90;;;;;;5135824;27;20046;-72
2023/09/16 08:53:30;;;;;;;27.25;23.65;;;18.60;99.90;;;;;;5135492;27;20413;-72
2023/09/16 08:55:56;;;;;;;27.08;22.10;;;18.70;99.90;;;;;;5135335;27;20051;-73
2023/09/16 08:58:23;;;;;;;27.30;23.17;;;18.80;99.90;;;;;;5135295;27;20100;-73
2023/09/16 09:00:49;;;;;;;28.50;24.00;;;18.90;99.90;;;;;;5135249;27;20050;-73
2023/09/16 09:03:15;;;;;;;29.60;22.60;;;18.90;99.90;;;;;;5135064;27;20043;-72
2023/09/16 09:05:43;;;;;;;28.17;22.63;;;19.00;99.90;;;;;;5135098;27;20035;-72
2023/09/16 09:08:11;;;;;;;26.08;21.13;;;19.00;99.90;;;;;;5135110;27;20390;-73
2023/09/16 09:10:37;;;;;;;31.98;24.05;;;19.00;99.90;;;;;;5135071;27;20054;-73
2023/09/16 09:13:06;;;;;;;28.10;23.27;;;19.10;99.90;;;;;;5135274;27;20442;-74
2023/09/16 09:15:34;;;;;;;26.83;22.20;;;19.20;99.90;;;;;;5136467;27;20039;-72
2023/09/16 09:18:00;;;;;;;27.25;22.65;;;19.20;99.90;;;;;;5134953;27;20114;-72
2023/09/16 09:20:27;;;;;;;25.27;21.40;;;19.20;99.90;;;;;;5134753;27;20134;-72
2023/09/16 09:22:55;;;;;;;24.67;20.48;;;19.20;99.90;;;;;;5135133;27;20115;-72
2023/09/16 09:25:21;;;;;;;25.70;22.15;;;19.30;99.90;;;;;;5134782;27;20129;-72
2023/09/16 09:27:51;;;;;;;26.30;22.10;;;19.40;99.90;;;;;;5135037;27;20097;-72
2023/09/16 09:30:26;;;;;;;24.95;20.50;;;19.40;99.90;;;;;;5134680;27;20043;-72
2023/09/16 09:32:56;;;;;;;24.83;19.73;;;19.40;99.90;;;;;;5133849;27;20055;-73
2023/09/16 09:35:30;;;;;;;25.08;19.95;;;19.50;99.90;;;;;;5134665;27;20051;-73
2023/09/16 09:37:57;;;;;;;23.88;19.80;;;19.60;99.90;;;;;;5134761;27;20126;-72
2023/09/16 09:40:23;;;;;;;23.17;18.15;;;19.60;99.90;;;;;;5134807;27;20059;-72
2023/09/16 09:42:51;;;;;;;20.30;17.33;;;19.60;99.90;;;;;;5134745;27;20071;-72
2023/09/16 09:45:19;;;;;;;21.23;18.13;;;19.70;99.90;;;;;;5134660;27;20050;-72
2023/09/16 09:47:46;;;;;;;23.30;17.50;;;19.80;99.90;;;;;;5135594;27;20073;-71
2023/09/16 09:50:14;;;;;;;20.58;17.80;;;20.00;99.90;;;;;;5134115;27;20039;-71
2023/09/16 09:52:48;;;;;;;20.88;17.25;;;20.00;99.90;;;;;;5135806;27;20126;-72
2023/09/16 09:55:18;;;;;;;19.58;16.70;;;20.20;99.90;;;;;;5134143;27;20161;-71
2023/09/16 09:57:45;;;;;;;21.88;17.33;;;20.30;99.90;;;;;;5135626;27;20042;-71
2023/09/16 10:00:15;;;;;;;24.85;18.45;;;20.30;99.90;;;;;;5134179;27;20043;-71
2023/09/16 10:02:41;;;;;;;20.23;16.13;;;20.30;99.90;;;;;;5133992;27;20051;-72
2023/09/16 10:05:11;;;;;;;24.35;17.65;;;20.30;99.90;;;;;;5134177;27;20039;-71
2023/09/16 10:07:43;;;;;;;22.10;15.98;;;20.30;99.90;;;;;;5134203;27;20055;-71
2023/09/16 10:10:26;;;;;;;20.10;16.38;;;20.50;99.90;;;;;;5135475;27;20046;-71
2023/09/16 10:12:56;;;;;;;23.60;17.75;;;20.50;99.90;;;;;;5133885;27;20047;-71
2023/09/16 10:15:33;;;;;;;19.00;16.98;;;20.60;99.90;;;;;;5134964;27;20047;-71
2023/09/16 10:17:59;;;;;;;18.95;16.70;;;20.60;99.90;;;;;;5133919;27;20047;-72
2023/09/16 10:20:32;;;;;;;22.70;18.05;;;20.70;99.90;;;;;;5133909;27;20046;-72
2023/09/16 10:22:59;;;;;;;21.05;17.58;;;20.60;99.90;;;;;;5134954;27;20039;-71
2023/09/16 10:25:27;;;;;;;19.58;16.45;;;20.60;99.90;;;;;;5133478;27;20083;-71
2023/09/16 10:28:03;;;;;;;18.40;14.82;;;20.70;99.90;;;;;;5133218;27;20035;-72
2023/09/16 10:30:30;;;;;;;18.35;15.10;;;20.90;99.90;;;;;;5132957;27;20035;-72
2023/09/16 10:33:04;;;;;;;16.77;12.60;;;20.90;99.90;;;;;;5132896;27;20065;-71
2023/09/16 10:35:32;;;;;;;15.52;11.25;;;21.10;99.90;;;;;;5132267;27;20047;-72
2023/09/16 10:38:00;;;;;;;17.20;12.43;;;21.20;99.90;;;;;;5134087;27;20496;-72
2023/09/16 10:40:29;;;;;;;15.40;11.30;;;21.20;99.90;;;;;;5132741;27;20520;-72
2023/09/16 10:42:57;;;;;;;12.77;9.30;;;21.20;99.90;;;;;;5133058;27;20100;-72
2023/09/16 10:45:24;;;;;;;12.35;7.88;;;21.30;99.90;;;;;;5133179;27;20051;-72
2023/09/16 10:47:50;;;;;;;9.57;7.20;;;21.50;99.90;;;;;;5134110;27;20096;-72
2023/09/16 10:50:19;;;;;;;12.13;7.65;;;21.60;99.90;;;;;;5133231;27;20047;-72
2023/09/16 10:52:55;;;;;;;11.50;7.55;;;21.80;99.90;;;;;;5134560;27;20039;-72
2023/09/16 10:55:59;;;;;;;12.07;7.85;;;21.80;99.90;;;;;;5133281;27;20043;-72
2023/09/16 10:58:46;;;;;;;11.05;8.77;;;21.90;99.90;;;;;;5134390;27;20501;-72
2023/09/16 11:01:21;;;;;;;13.25;9.85;;;21.90;99.90;;;;;;5133024;27;20205;-72
2023/09/16 11:03:55;;;;;;;17.55;11.40;;;21.90;99.90;;;;;;5132992;27;20038;-72
2023/09/16 11:06:20;;;;;;;14.88;11.90;;;21.90;99.90;;;;;;5133039;27;20051;-72
2023/09/16 11:08:47;;;;;;;13.90;10.45;;;22.10;99.90;;;;;;5133037;27;20042;-72
2023/09/16 11:11:13;;;;;;;10.70;8.80;;;22.10;99.90;;;;;;5133025;27;20053;-72
2023/09/16 11:13:39;;;;;;;10.85;7.97;;;22.00;99.90;;;;;;5134151;27;20475;-72
2023/09/16 11:16:09;;;;;;;14.40;8.57;;;22.10;99.90;;;;;;5132933;28;20118;-72
2023/09/16 11:18:39;;;;;;;9.10;6.10;;;22.20;99.90;;;;;;5132787;28;20090;-72
2023/09/16 11:21:05;;;;;;;9.90;7.57;;;22.30;99.90;;;;;;5133534;28;20043;-72
2023/09/16 11:23:30;;;;;;;11.55;7.65;;;22.50;99.90;;;;;;5134579;28;20043;-71
2023/09/16 11:25:57;;;;;;;9.48;6.57;;;22.40;99.90;;;;;;5134179;28;20104;-71
2023/09/16 11:28:25;;;;;;;10.85;6.78;;;22.40;99.90;;;;;;5133240;28;20107;-71
2023/09/16 11:30:56;;;;;;;10.70;6.85;;;22.40;99.90;;;;;;5133171;28;20047;-72
2023/09/16 11:33:30;;;;;;;9.52;6.88;;;22.50;99.90;;;;;;5154443;27;20069;-73
2023/09/16 11:36:20;;;;;;;11.02;8.20;;;22.50;99.90;;;;;;5154842;27;20089;-72
2023/09/16 11:38:58;;;;;;;9.80;7.57;;;22.50;99.90;;;;;;5155191;27;20043;-72
2023/09/16 11:41:24;;;;;;;9.80;7.88;;;22.60;99.90;;;;;;5154563;27;20078;-71
2023/09/16 11:43:50;;;;;;;8.85;6.18;;;22.70;99.90;;;;;;5136185;27;20035;-72
2023/09/16 11:46:16;;;;;;;8.60;6.40;;;22.70;99.90;;;;;;5136052;27;20054;-72
2023/09/16 11:48:53;;;;;;;8.30;6.38;;;22.70;99.90;;;;;;5154797;27;20026;-71
2023/09/16 11:51:21;;;;;;;8.60;6.30;;;22.80;99.90;;;;;;5154586;27;20050;-71
2023/09/16 11:53:47;;;;;;;10.57;7.72;;;22.90;99.90;;;;;;5154561;27;20087;-73
2023/09/16 11:56:14;;;;;;;9.35;6.75;;;23.00;99.90;;;;;;5156251;27;20054;-71
2023/09/16 11:58:42;;;;;;;11.25;6.80;;;23.10;99.90;;;;;;5158618;27;20035;-71
2023/09/16 12:01:11;;;;;;;8.02;6.10;;;23.00;99.90;;;;;;5140145;27;20043;-73
2023/09/16 12:03:37;;;;;;;9.55;7.00;;;22.90;99.90;;;;;;5139650;27;20047;-73
2023/09/16 12:06:03;;;;;;;8.55;6.00;;;22.80;99.90;;;;;;5139970;27;20042;-73
2023/09/16 12:08:29;;;;;;;9.10;6.68;;;22.90;99.90;;;;;;5139721;27;20076;-73
2023/09/16 12:10:55;;;;;;;10.93;7.28;;;23.00;99.90;;;;;;5139666;27;20053;-71
2023/09/16 12:13:31;;;;;;;10.93;6.68;;;23.00;99.90;;;;;;5158643;27;20047;-74
2023/09/16 12:15:57;;;;;;;13.68;7.63;;;23.00;99.90;;;;;;5139485;27;20133;-72
2023/09/16 12:18:24;;;;;;;9.82;6.88;;;23.10;99.90;;;;;;5139499;27;20058;-73
2023/09/16 12:20:50;;;;;;;12.85;8.18;;;23.20;99.90;;;;;;5139483;27;20034;-72
2023/09/16 12:23:16;;;;;;;9.73;7.03;;;23.20;99.90;;;;;;5139734;27;20047;-71
2023/09/16 12:25:43;;;;;;;9.50;6.97;;;23.30;99.90;;;;;;5139840;27;20390;-72
2023/09/16 12:28:10;;;;;;;10.45;8.10;;;23.20;99.90;;;;;;5139543;27;20496;-72